(°F)
64°
63°
62°
62°
61°
61°
61°
(°F)
65°
65°
64°
63°
63°
62°
62°
N
N
NNE
NE
ENE
S
SSW
(mph)
2-4
2-4
2-3
1-3
1-3
1-3
1-3
(in)
0
0
0
0
0
0
0
(%)
30
30
30
30
29
29
28

Sun elevation

/ -17.7°
sun-icon
UV 6
05:16
21:10
Waxing crescent moon (71°)
11:54
00:24

METAR for Renton (KRNT)

Time Conditions Temperature/
Dewpoint
Wind Visibility Weather Clouds Pressure Change Raw
VFR 64.94°F / 57.02°F variable 0kt >10km 0.13mm precipitation Scattered Clouds 7000ft
Scattered Clouds 8000ft
Broken Clouds 10000ft
1013 - KRNT 060553Z 00000KT 10SM SCT070 SCT080 BKN100 18/14 A2992 RMK AO2 RAB20E32 SLP135 P0000 60000 T01830139 10239 20178 51008 $
VFR 64.94°F / 55.94°F variable 0kt >10km - Few Clouds 7000ft
Scattered Clouds 11000ft
1013 - KRNT 060453Z 00000KT 10SM FEW070 SCT110 18/13 A2990 RMK AO2 SLP131 T01830133 $
VFR 64.94°F / 55.94°F 320º 4kt >10km 0.13mm precipitation Scattered Clouds 8000ft
Broken Clouds 10000ft
1013 - KRNT 060353Z 32004KT 10SM SCT080 BKN100 18/13 A2991 RMK AO2 RAE28 SLP132 P0000 T01830133 $
VFR 66.92°F / 55.94°F 340º 7kt >10km Light Rain 0.13mm precipitation Overcast 9500ft 1012 - KRNT 060253Z 34007KT 8SM -RA OVC095 19/13 A2989 RMK AO2 RAB07E30B51 SLP127 P0000 60000 T01940133 55000 $
VFR 69.98°F / 53.96°F 310º 5kt >10km 0.13mm precipitation Overcast 9500ft 1012 - KRNT 060153Z 31005KT 10SM OVC095 21/12 A2989 RMK AO2 RAE02 SLP127 P0000 T02110122 $
VFR 73.94°F / 48.92°F 340º 5kt >10km Light Rain 0.13mm precipitation Few Clouds 3700ft
Few Clouds 8000ft
Broken Clouds 10000ft
1012 - KRNT 060053Z 34005KT 10SM -RA FEW037 FEW080 BKN100 23/09 A2988 RMK AO2 RAB52 SLP123 P0000 T02330094 $
VFR 73.04°F / 50°F 320º 6kt >10km - Broken Clouds 11000ft 1012 - KRNT 052353Z 32006KT 10SM BKN110 23/10 A2989 RMK AO2 SLP127 T02280100 10244 20189 56002 $
VFR 73.94°F / 51.98°F 310º 5kt >10km - Few Clouds 6000ft
Overcast 10000ft
1012 - KRNT 052253Z 31005KT 10SM FEW060 OVC100 23/11 A2989 RMK AO2 SLP127 T02330111 $
VFR 75.02°F / 51.98°F 330º 7kt >10km - Overcast 9500ft 1012 - KRNT 052153Z 33007KT 10SM OVC095 24/11 A2989 RMK AO2 SLP125 T02390111 $
VFR 75.02°F / 51.98°F 340º 9kt >10km - Few Clouds 10000ft 1012 - KRNT 052053Z 34009KT 10SM FEW100 24/11 A2990 RMK AO2 SLP129 T02390111 58014 $
VFR 73.04°F / 51.98°F 330º 9kt >10km - Clear 1013 - KRNT 051953Z 33009KT 10SM CLR 23/11 A2991 RMK AO2 SLP134 T02280111 $
VFR 69.98°F / 53.06°F 340º 9kt >10km - Clear 1013 - KRNT 051853Z 34009KT 10SM CLR 21/12 A2992 RMK AO2 SLP137 T02110117 $
VFR 66.02°F / 55.04°F 350º 5kt >10km - Clear 1014 - KRNT 051753Z 35005KT 7SM CLR 19/13 A2994 RMK AO2 SLP142 T01890128 10189 20122 58011 $
MVFR 62.96°F / 55.04°F 360º 5kt 8000m - Clear 1014 - KRNT 051653Z 36005KT 5SM CLR 17/13 A2995 RMK AO2 SLP148 T01720128 $
MVFR 59°F / 53.06°F variable 0kt 6400m - Clear 1015 - KRNT 051553Z 00000KT 4SM CLR 15/12 A2997 RMK AO2 SLP153 T01500117 $
MVFR 57.92°F / 53.06°F 340º 3kt 4800m - Scattered Clouds 700ft - KRNT 051516Z 34003KT 3SM SCT007 14/12 A2997 RMK AO2 T01440117 $
IFR 57.92°F / 53.06°F variable 0kt 4800m - Overcast 700ft 1015 - KRNT 051453Z 00000KT 3SM OVC007 14/12 A2997 RMK AO2 SLP154 T01440117 50002 $
IFR 57.02°F / 53.06°F 330º 5kt 4800m - Overcast 600ft - KRNT 051425Z 33005KT 3SM OVC006 14/12 A2997 RMK AO2 T01390117 $
IFR 57.02°F / 51.98°F 360º 5kt 4000m - Overcast 700ft - KRNT 051411Z AUTO 36005KT 2 1/2SM OVC007 14/11 A2997 RMK AO2 T01390111 $
IFR 55.94°F / 51.08°F variable 0kt 6400m - Overcast 700ft 1015 - KRNT 051353Z AUTO 00000KT 4SM OVC007 13/11 A2997 RMK AO2 SLP154 T01330106 $
IFR 53.96°F / 51.08°F variable 0kt 6400m - Broken Clouds 700ft - KRNT 051312Z AUTO 00000KT 4SM BKN007 12/11 A2998 RMK AO2 T01220106 $
MVFR 53.96°F / 50°F variable 0kt 4800m - Scattered Clouds 700ft - KRNT 051301Z AUTO 00000KT 3SM SCT007 12/10 A2998 RMK AO2 T01220100 $
MVFR 53.96°F / 51.08°F variable 0kt 4800m - Clear 1015 - KRNT 051253Z AUTO 00000KT 3SM CLR 12/11 A2998 RMK AO2 SLP155 T01220106 $
IFR 55.94°F / 51.98°F variable 0kt 4000m - Scattered Clouds 800ft - KRNT 051216Z AUTO 00000KT 2 1/2SM SCT008 13/11 A2997 RMK AO2 T01330111 $

VFR

64.94°F / 57.02°F

[More]
Wind variable 0kt
Visibility >10km
Weather 0.13mm precipitation
Clouds Scattered Clouds 7000ft
Scattered Clouds 8000ft
Broken Clouds 10000ft
Pressure 1013
Change -
Raw KRNT 060553Z 00000KT 10SM SCT070 SCT080 BKN100 18/14 A2992 RMK AO2 RAB20E32 SLP135 P0000 60000 T01830139 10239 20178 51008 $

VFR

64.94°F / 55.94°F

[More]
Wind variable 0kt
Visibility >10km
Weather -
Clouds Few Clouds 7000ft
Scattered Clouds 11000ft
Pressure 1013
Change -
Raw KRNT 060453Z 00000KT 10SM FEW070 SCT110 18/13 A2990 RMK AO2 SLP131 T01830133 $

VFR

64.94°F / 55.94°F

[More]
Wind 320º 4kt
Visibility >10km
Weather 0.13mm precipitation
Clouds Scattered Clouds 8000ft
Broken Clouds 10000ft
Pressure 1013
Change -
Raw KRNT 060353Z 32004KT 10SM SCT080 BKN100 18/13 A2991 RMK AO2 RAE28 SLP132 P0000 T01830133 $

VFR

66.92°F / 55.94°F

[More]
Wind 340º 7kt
Visibility >10km
Weather Light Rain 0.13mm precipitation
Clouds Overcast 9500ft
Pressure 1012
Change -
Raw KRNT 060253Z 34007KT 8SM -RA OVC095 19/13 A2989 RMK AO2 RAB07E30B51 SLP127 P0000 60000 T01940133 55000 $

VFR

69.98°F / 53.96°F

[More]
Wind 310º 5kt
Visibility >10km
Weather 0.13mm precipitation
Clouds Overcast 9500ft
Pressure 1012
Change -
Raw KRNT 060153Z 31005KT 10SM OVC095 21/12 A2989 RMK AO2 RAE02 SLP127 P0000 T02110122 $

VFR

73.94°F / 48.92°F

[More]
Wind 340º 5kt
Visibility >10km
Weather Light Rain 0.13mm precipitation
Clouds Few Clouds 3700ft
Few Clouds 8000ft
Broken Clouds 10000ft
Pressure 1012
Change -
Raw KRNT 060053Z 34005KT 10SM -RA FEW037 FEW080 BKN100 23/09 A2988 RMK AO2 RAB52 SLP123 P0000 T02330094 $

VFR

73.04°F / 50°F

[More]
Wind 320º 6kt
Visibility >10km
Weather -
Clouds Broken Clouds 11000ft
Pressure 1012
Change -
Raw KRNT 052353Z 32006KT 10SM BKN110 23/10 A2989 RMK AO2 SLP127 T02280100 10244 20189 56002 $

VFR

73.94°F / 51.98°F

[More]
Wind 310º 5kt
Visibility >10km
Weather -
Clouds Few Clouds 6000ft
Overcast 10000ft
Pressure 1012
Change -
Raw KRNT 052253Z 31005KT 10SM FEW060 OVC100 23/11 A2989 RMK AO2 SLP127 T02330111 $

VFR

75.02°F / 51.98°F

[More]
Wind 330º 7kt
Visibility >10km
Weather -
Clouds Overcast 9500ft
Pressure 1012
Change -
Raw KRNT 052153Z 33007KT 10SM OVC095 24/11 A2989 RMK AO2 SLP125 T02390111 $

VFR

75.02°F / 51.98°F

[More]
Wind 340º 9kt
Visibility >10km
Weather -
Clouds Few Clouds 10000ft
Pressure 1012
Change -
Raw KRNT 052053Z 34009KT 10SM FEW100 24/11 A2990 RMK AO2 SLP129 T02390111 58014 $

VFR

73.04°F / 51.98°F

[More]
Wind 330º 9kt
Visibility >10km
Weather -
Clouds Clear
Pressure 1013
Change -
Raw KRNT 051953Z 33009KT 10SM CLR 23/11 A2991 RMK AO2 SLP134 T02280111 $

VFR

69.98°F / 53.06°F

[More]
Wind 340º 9kt
Visibility >10km
Weather -
Clouds Clear
Pressure 1013
Change -
Raw KRNT 051853Z 34009KT 10SM CLR 21/12 A2992 RMK AO2 SLP137 T02110117 $

VFR

66.02°F / 55.04°F

[More]
Wind 350º 5kt
Visibility >10km
Weather -
Clouds Clear
Pressure 1014
Change -
Raw KRNT 051753Z 35005KT 7SM CLR 19/13 A2994 RMK AO2 SLP142 T01890128 10189 20122 58011 $

MVFR

62.96°F / 55.04°F

[More]
Wind 360º 5kt
Visibility 8000m
Weather -
Clouds Clear
Pressure 1014
Change -
Raw KRNT 051653Z 36005KT 5SM CLR 17/13 A2995 RMK AO2 SLP148 T01720128 $

MVFR

59°F / 53.06°F

[More]
Wind variable 0kt
Visibility 6400m
Weather -
Clouds Clear
Pressure 1015
Change -
Raw KRNT 051553Z 00000KT 4SM CLR 15/12 A2997 RMK AO2 SLP153 T01500117 $

MVFR

57.92°F / 53.06°F

[More]
Wind 340º 3kt
Visibility 4800m
Weather -
Clouds Scattered Clouds 700ft
Pressure
Change -
Raw KRNT 051516Z 34003KT 3SM SCT007 14/12 A2997 RMK AO2 T01440117 $

IFR

57.92°F / 53.06°F

[More]
Wind variable 0kt
Visibility 4800m
Weather -
Clouds Overcast 700ft
Pressure 1015
Change -
Raw KRNT 051453Z 00000KT 3SM OVC007 14/12 A2997 RMK AO2 SLP154 T01440117 50002 $

IFR

57.02°F / 53.06°F

[More]
Wind 330º 5kt
Visibility 4800m
Weather -
Clouds Overcast 600ft
Pressure
Change -
Raw KRNT 051425Z 33005KT 3SM OVC006 14/12 A2997 RMK AO2 T01390117 $

IFR

57.02°F / 51.98°F

[More]
Wind 360º 5kt
Visibility 4000m
Weather -
Clouds Overcast 700ft
Pressure
Change -
Raw KRNT 051411Z AUTO 36005KT 2 1/2SM OVC007 14/11 A2997 RMK AO2 T01390111 $

IFR

55.94°F / 51.08°F

[More]
Wind variable 0kt
Visibility 6400m
Weather -
Clouds Overcast 700ft
Pressure 1015
Change -
Raw KRNT 051353Z AUTO 00000KT 4SM OVC007 13/11 A2997 RMK AO2 SLP154 T01330106 $

IFR

53.96°F / 51.08°F

[More]
Wind variable 0kt
Visibility 6400m
Weather -
Clouds Broken Clouds 700ft
Pressure
Change -
Raw KRNT 051312Z AUTO 00000KT 4SM BKN007 12/11 A2998 RMK AO2 T01220106 $

MVFR

53.96°F / 50°F

[More]
Wind variable 0kt
Visibility 4800m
Weather -
Clouds Scattered Clouds 700ft
Pressure
Change -
Raw KRNT 051301Z AUTO 00000KT 3SM SCT007 12/10 A2998 RMK AO2 T01220100 $

MVFR

53.96°F / 51.08°F

[More]
Wind variable 0kt
Visibility 4800m
Weather -
Clouds Clear
Pressure 1015
Change -
Raw KRNT 051253Z AUTO 00000KT 3SM CLR 12/11 A2998 RMK AO2 SLP155 T01220106 $

IFR

55.94°F / 51.98°F

[More]
Wind variable 0kt
Visibility 4000m
Weather -
Clouds Scattered Clouds 800ft
Pressure
Change -
Raw KRNT 051216Z AUTO 00000KT 2 1/2SM SCT008 13/11 A2997 RMK AO2 T01330111 $

Radar and precipitation nowcast for Renton

Drizzle
Light
Moderate
Heavy
Very Heavy
Hail

The location marker is placed on Renton. This animation shows the precipitation radar for the last hour, as well as a 1h forecast. Drizzle or light snow fall might be invisible for the radar. Precipitation intensity is colour coded, ranging from light blue to orange.

Current satellite images for Renton, United States

The location marker is placed on Renton. [More]

The real-time satellite image combines visible light during daytime with infrared radiation during nighttime. At night, the image is not dark as infrared radiation can detect temperature differences. Unfortunately, low clouds and fog are difficult to distinguish from ground temperatures and thus can be almost invisible during the night. Meteosat satellite images for Europe are updated in real-time every 5 minutes. GOES-16/GOES-17 (North & South America) and Himawari (Asia) images update every 10 minutes.

Back to top